Mantorville, Minnesota
Current Conditions -  °F | °C
As of 12:14 AM on Thursday 29 Jan 2015 (Local Time) from KTOB Reporting Station
Haze Haze  
Wind Chill: 23°   Ceiling: 300
Heat Index: 32°   Visibility: 0.75mi
Dew Point: 32°   Wind: 13mph
Humidity: 100%   Direction: 330°NNW
Pressure: 29.82"   Gusts: NA
Location:  44.07°N, 92.76°W
Report Text: KTOB 290614Z AUTO 33011KT 3/4SM BR OVC003 00/00 A2982 RMK AO2
Loading
Personal Weather Stations






























Interactive Weather Map New forecast layout! Learn more

10-Day Weather Forecast

Advertisements
Track Severe Weather on mobile